Time,TemperatureF,DewpointF,PressureIn,WindDirection,WindDirectionDegrees,WindSpeedMPH,WindSpeedGustMPH,Humidity,HourlyPrecipIn,Conditions,Clouds,dailyrainin,SoftwareType,DateUTC
2013-05-19 00:02:00,71.4,65.3,29.06,SSE,157,0.0,-999.0,81,-99.99,,,0.00,Acu-Link.com,2013-05-19 05:02:00,
2013-05-19 00:17:00,71.2,65.1,29.08,NE,45,0.0,-999.0,81,-99.99,,,0.00,Acu-Link.com,2013-05-19 05:17:00,
2013-05-19 00:32:00,71.2,65.1,29.08,SSE,157,0.0,-999.0,81,-99.99,,,0.00,Acu-Link.com,2013-05-19 05:32:00,
2013-05-19 00:47:00,71.1,65.0,29.08,East,90,0.0,-999.0,81,-99.99,,,0.00,Acu-Link.com,2013-05-19 05:47:00,
2013-05-19 01:02:00,71.1,65.0,29.08,South,180,0.0,-999.0,81,-99.99,,,0.00,Acu-Link.com,2013-05-19 06:02:00,
2013-05-19 01:17:00,71.6,65.5,29.09,SE,135,0.0,-999.0,81,-99.99,,,0.00,Acu-Link.com,2013-05-19 06:17:00,
2013-05-19 01:32:00,71.8,65.6,29.09,SSE,157,0.0,-999.0,81,-99.99,,,0.00,Acu-Link.com,2013-05-19 06:32:00,
2013-05-19 01:47:00,72.0,65.8,29.08,West,270,0.0,-999.0,81,-99.99,,,0.00,Acu-Link.com,2013-05-19 06:47:00,
2013-05-19 02:03:00,71.6,65.5,29.07,SSW,202,0.0,-999.0,81,-99.99,,,0.00,Acu-Link.com,2013-05-19 07:03:00,
2013-05-19 02:18:00,71.6,65.5,29.06,ESE,112,0.0,-999.0,81,-99.99,,,0.00,Acu-Link.com,2013-05-19 07:18:00,
2013-05-19 02:33:00,71.4,65.3,29.06,SE,135,0.0,-999.0,81,-99.99,,,0.00,Acu-Link.com,2013-05-19 07:33:00,
2013-05-19 02:48:00,71.8,65.3,29.07,WSW,247,0.0,-999.0,80,-99.99,,,0.00,Acu-Link.com,2013-05-19 07:48:00,
2013-05-19 03:04:00,71.1,64.6,29.06,WNW,292,0.0,-999.0,80,-99.99,,,0.00,Acu-Link.com,2013-05-19 08:04:00,
2013-05-19 03:19:00,71.1,64.6,29.05,SSE,157,0.0,-999.0,80,-99.99,,,0.00,Acu-Link.com,2013-05-19 08:19:00,
2013-05-19 03:34:00,70.3,64.2,29.04,SE,135,0.0,-999.0,81,-99.99,,,0.00,Acu-Link.com,2013-05-19 08:34:00,
2013-05-19 03:49:00,69.4,62.6,29.05,ESE,112,0.0,-999.0,79,-99.99,,,0.00,Acu-Link.com,2013-05-19 08:49:00,
2013-05-19 04:04:00,68.7,62.3,29.05,WSW,247,0.0,-999.0,80,-99.99,,,0.00,Acu-Link.com,2013-05-19 09:04:00,
2013-05-19 04:19:00,67.6,61.6,29.03,South,180,0.0,-999.0,81,-99.99,,,0.00,Acu-Link.com,2013-05-19 09:19:00,
2013-05-19 04:35:00,67.1,61.1,29.01,SSW,202,0.0,-999.0,81,-99.99,,,0.00,Acu-Link.com,2013-05-19 09:35:00,
2013-05-19 04:50:00,66.4,60.0,28.97,NNE,22,0.0,-999.0,80,-99.99,,,0.00,Acu-Link.com,2013-05-19 09:50:00,
2013-05-19 05:05:00,66.2,59.5,28.97,NE,45,0.0,-999.0,79,-99.99,,,0.00,Acu-Link.com,2013-05-19 10:05:00,
2013-05-19 05:20:00,66.4,60.0,28.98,SSE,157,0.0,-999.0,80,-99.99,,,0.00,Acu-Link.com,2013-05-19 10:20:00,
2013-05-19 05:35:00,65.3,59.0,28.98,West,270,0.0,-999.0,80,-99.99,,,0.00,Acu-Link.com,2013-05-19 10:35:00,
2013-05-19 05:50:00,64.2,56.5,28.99,SW,225,0.0,-999.0,76,-99.99,,,0.00,Acu-Link.com,2013-05-19 10:50:00,
2013-05-19 06:05:00,63.9,52.3,29.02,West,270,0.0,-999.0,66,-99.99,,,0.00,Acu-Link.com,2013-05-19 11:05:00,
2013-05-19 06:20:00,64.0,52.8,29.04,WNW,292,0.0,-999.0,67,-99.99,,,0.00,Acu-Link.com,2013-05-19 11:20:00,
2013-05-19 06:35:00,64.4,54.8,29.04,South,180,0.0,-999.0,71,-99.99,,,0.00,Acu-Link.com,2013-05-19 11:35:00,
2013-05-19 06:51:00,64.9,54.5,29.04,South,180,0.0,-999.0,69,-99.99,,,0.00,Acu-Link.com,2013-05-19 11:51:00,
2013-05-19 07:06:00,65.8,55.3,29.04,NE,45,0.0,-999.0,69,-99.99,,,0.00,Acu-Link.com,2013-05-19 12:06:00,
2013-05-19 07:21:00,66.6,57.7,29.01,NNE,22,0.0,-999.0,73,-99.99,,,0.00,Acu-Link.com,2013-05-19 12:21:00,
2013-05-19 07:36:00,67.3,59.8,28.99,NE,45,0.0,-999.0,77,-99.99,,,0.00,Acu-Link.com,2013-05-19 12:36:00,
2013-05-19 07:51:00,67.3,59.8,28.96,ENE,67,0.0,-999.0,77,-99.99,,,0.00,Acu-Link.com,2013-05-19 12:51:00,
2013-05-19 08:06:00,67.6,60.8,28.98,WSW,247,0.0,-999.0,79,-99.99,,,0.00,Acu-Link.com,2013-05-19 13:06:00,
2013-05-19 08:21:00,69.1,62.7,29.00,South,180,0.0,-999.0,80,-99.99,,,0.00,Acu-Link.com,2013-05-19 13:21:00,
2013-05-19 08:36:00,70.3,63.5,29.00,East,90,0.0,-999.0,79,-99.99,,,0.00,Acu-Link.com,2013-05-19 13:36:00,
2013-05-19 08:51:00,73.8,65.4,29.01,SSW,202,0.0,-999.0,75,-99.99,,,0.00,Acu-Link.com,2013-05-19 13:51:00,
2013-05-19 09:07:00,74.8,65.2,29.03,SSE,157,0.0,-999.0,72,-99.99,,,0.00,Acu-Link.com,2013-05-19 14:07:00,
2013-05-19 09:22:00,77.7,67.1,29.03,South,180,0.0,-999.0,70,-99.99,,,0.00,Acu-Link.com,2013-05-19 14:22:00,
2013-05-19 09:37:00,78.8,67.3,29.03,SSE,157,0.0,-999.0,68,-99.99,,,0.00,Acu-Link.com,2013-05-19 14:37:00,
2013-05-19 09:52:00,79.5,66.2,29.02,SSW,202,0.0,-999.0,64,-99.99,,,0.00,Acu-Link.com,2013-05-19 14:52:00,
2013-05-19 10:07:00,79.7,66.0,29.00,South,180,0.0,-999.0,63,-99.99,,,0.00,Acu-Link.com,2013-05-19 15:07:00,
2013-05-19 10:22:00,77.0,64.8,28.98,South,180,0.0,-999.0,66,-99.99,,,0.00,Acu-Link.com,2013-05-19 15:22:00,
2013-05-19 10:37:00,77.9,65.6,28.97,ESE,112,0.0,-999.0,66,-99.99,,,0.00,Acu-Link.com,2013-05-19 15:37:00,
2013-05-19 10:52:00,80.8,67.0,28.96,SSW,202,0.0,-999.0,63,-99.99,,,0.00,Acu-Link.com,2013-05-19 15:52:00,
2013-05-19 11:07:00,81.9,67.6,28.97,SE,135,0.0,-999.0,62,-99.99,,,0.00,Acu-Link.com,2013-05-19 16:07:00,
2013-05-19 11:22:00,79.9,67.1,28.97,SSW,202,0.0,-999.0,65,-99.99,,,0.00,Acu-Link.com,2013-05-19 16:22:00,
2013-05-19 11:38:00,82.4,67.1,28.96,SW,225,0.0,-999.0,60,-99.99,,,0.00,Acu-Link.com,2013-05-19 16:38:00,
2013-05-19 11:53:00,84.7,66.7,28.96,SW,225,0.0,-999.0,55,-99.99,,,0.00,Acu-Link.com,2013-05-19 16:53:00,
2013-05-19 12:08:00,82.4,64.6,28.96,West,270,0.0,-999.0,55,-99.99,,,0.00,Acu-Link.com,2013-05-19 17:08:00,
2013-05-19 12:23:00,83.1,63.6,28.97,South,180,0.0,-999.0,52,-99.99,,,0.00,Acu-Link.com,2013-05-19 17:23:00,
2013-05-19 12:38:00,86.4,63.8,28.96,NE,45,0.0,-999.0,47,-99.99,,,0.00,Acu-Link.com,2013-05-19 17:38:00,
2013-05-19 12:53:00,88.0,64.0,28.95,West,270,0.0,-999.0,45,-99.99,,,0.00,Acu-Link.com,2013-05-19 17:53:00,
2013-05-19 13:08:00,89.2,63.1,28.96,SW,225,0.0,-999.0,42,-99.99,,,0.00,Acu-Link.com,2013-05-19 18:08:00,
2013-05-19 13:23:00,89.6,63.4,28.97,SW,225,0.0,-999.0,42,-99.99,,,0.00,Acu-Link.com,2013-05-19 18:23:00,
2013-05-19 13:38:00,91.8,64.0,28.96,SE,135,0.0,-999.0,40,-99.99,,,0.00,Acu-Link.com,2013-05-19 18:38:00,
2013-05-19 13:54:00,92.8,64.9,28.96,WSW,247,0.0,-999.0,40,-99.99,,,0.00,Acu-Link.com,2013-05-19 18:54:00,
2013-05-19 14:09:00,90.0,63.8,28.94,SSE,157,0.0,-999.0,42,-99.99,,,0.00,Acu-Link.com,2013-05-19 19:09:00,
2013-05-19 14:24:00,91.9,65.5,28.94,SW,225,0.0,-999.0,42,-99.99,,,0.00,Acu-Link.com,2013-05-19 19:24:00,
2013-05-19 14:39:00,89.2,64.4,28.93,SSE,157,0.0,-999.0,44,-99.99,,,0.00,Acu-Link.com,2013-05-19 19:39:00,
2013-05-19 14:54:00,91.0,67.9,28.93,SW,225,0.0,-999.0,47,-99.99,,,0.00,Acu-Link.com,2013-05-19 19:54:00,
2013-05-19 15:09:00,90.0,68.2,28.93,South,180,0.0,-999.0,49,-99.99,,,0.00,Acu-Link.com,2013-05-19 20:09:00,
2013-05-19 15:24:00,89.2,68.1,28.93,South,180,0.0,-999.0,50,-99.99,,,0.00,Acu-Link.com,2013-05-19 20:24:00,
2013-05-19 15:39:00,89.8,68.6,28.92,South,180,0.0,-999.0,50,-99.99,,,0.00,Acu-Link.com,2013-05-19 20:39:00,
2013-05-19 15:54:00,90.3,68.5,28.92,SSW,202,0.0,-999.0,49,-99.99,,,0.00,Acu-Link.com,2013-05-19 20:54:00,
2013-05-19 16:10:00,89.4,68.3,28.92,SSW,202,0.0,-999.0,50,-99.99,,,0.00,Acu-Link.com,2013-05-19 21:10:00,
2013-05-19 16:25:00,87.8,69.0,28.92,South,180,0.0,-999.0,54,-99.99,,,0.00,Acu-Link.com,2013-05-19 21:25:00,
2013-05-19 16:40:00,86.4,67.8,28.90,West,270,0.0,-999.0,54,-99.99,,,0.00,Acu-Link.com,2013-05-19 21:40:00,
2013-05-19 16:55:00,88.2,67.8,28.89,SSW,202,0.0,-999.0,51,-99.99,,,0.00,Acu-Link.com,2013-05-19 21:55:00,
2013-05-19 17:10:00,89.6,68.5,28.88,South,180,0.0,-999.0,50,-99.99,,,0.00,Acu-Link.com,2013-05-19 22:10:00,
2013-05-19 17:25:00,88.3,68.4,28.88,South,180,0.0,-999.0,52,-99.99,,,0.00,Acu-Link.com,2013-05-19 22:25:00,
2013-05-19 17:40:00,85.3,68.3,28.88,South,180,0.0,-999.0,57,-99.99,,,0.00,Acu-Link.com,2013-05-19 22:40:00,
2013-05-19 17:55:00,85.3,69.8,28.88,SSW,202,0.0,-999.0,60,-99.99,,,0.00,Acu-Link.com,2013-05-19 22:55:00,
2013-05-19 18:10:00,82.6,69.6,28.86,South,180,0.0,-999.0,65,-99.99,,,0.00,Acu-Link.com,2013-05-19 23:10:00,
2013-05-19 18:26:00,81.3,69.7,28.86,SSW,202,0.0,-999.0,68,-99.99,,,0.00,Acu-Link.com,2013-05-19 23:26:00,
2013-05-19 18:41:00,79.9,69.2,28.84,SSW,202,0.0,-999.0,70,-99.99,,,0.00,Acu-Link.com,2013-05-19 23:41:00,
2013-05-19 18:56:00,73.0,61.0,28.89,East,90,0.0,-999.0,66,-99.99,,,0.02,Acu-Link.com,2013-05-19 23:56:00,
2013-05-19 19:11:00,62.4,46.5,28.94,NW,315,0.0,-999.0,56,-99.99,,,0.22,Acu-Link.com,2013-05-20 00:11:00,
2013-05-19 19:26:00,61.3,19.9,28.95,NW,315,0.0,-999.0,20,-99.99,,,0.40,Acu-Link.com,2013-05-20 00:26:00,
2013-05-19 19:41:00,61.0,13.0,28.92,North,0,0.0,-999.0,15,-99.99,,,0.43,Acu-Link.com,2013-05-20 00:41:00,
2013-05-19 19:56:00,61.0,4.1,28.90,NE,45,0.0,-999.0,10,-99.99,,,0.46,Acu-Link.com,2013-05-20 00:56:00,
2013-05-19 20:12:00,61.0,-0.7,28.88,NE,45,0.0,-999.0,8,-99.99,,,0.48,Acu-Link.com,2013-05-20 01:12:00,
2013-05-19 20:27:00,61.5,-14.5,28.86,ENE,67,0.0,-999.0,4,-99.99,,,0.48,Acu-Link.com,2013-05-20 01:27:00,
2013-05-19 20:42:00,61.7,-19.9,28.84,North,0,0.0,-999.0,3,-99.99,,,0.48,Acu-Link.com,2013-05-20 01:42:00,
2013-05-19 20:57:00,62.1,-39.6,28.93,NNW,337,0.0,-999.0,0,-99.99,,,0.48,Acu-Link.com,2013-05-20 01:57:00,
2013-05-19 21:12:00,61.9,-39.7,28.88,NNE,22,0.0,-999.0,0,-99.99,,,0.54,Acu-Link.com,2013-05-20 02:12:00,
2013-05-19 21:27:00,61.7,-39.8,28.94,ESE,112,0.0,-999.0,0,-99.99,,,0.66,Acu-Link.com,2013-05-20 02:27:00,